Record high temperature 44.9°C Record low temperature -0.3°C Record high gust 87.3 km/h Record high average 77.7 km/h Record daily rain 383.8 mm Record low windchill -5.8°C Record high barometer 1043.6 hPa Record low barometer 978.0 hPa
Daily high pressure 1019.1 mb Daily low pressure 1014.8 mb Daily low windchill 4.7°C Daily high heat index 24.1°C Daily high gust speed 18.5 kmh S Daily high average speed 10.0 kmh SE
Estación de MeteoMurcia.com -------- Murcia-Puente Tocinos
Ultima grabación a: 16:00 Data: 23 November 2017, time of next update: 16:10
Tiempo actualClear Temperatura actual24.1°C (75.4°F) (Indice de Calor24.1°C ), Temperatura aparente 22.8°C
Temperatura máxima (desde medianoche)24.1°C at: 15:48 Temperatura mínima (desde medianoche)7.1°C at: 08:00
Velocidad media del viento (diez minutos)3.7 kmh (2.0 kts) Dirección del viento (diez minutos)SSE (155°)
Indice de Calor24.1°C ráfagas maxima (última hora)11.1 kmh (6.0 kts) at: 15:05
ráfagas maxima (desde medianoche)18.5 kmh (10.0 kts) at: 12:05 Maximo media de un minuto (desde medianoche)10.0 kmh (5.4 kts) at: 12:08
Lluvia (última hora)0.0 mm Lluvia (desde medianoche)0.0 mm (0.00 in.)---
Lluvia Este mes 2.3 mm (0.09 in.) Lluvia Hasta la fecha este año206.5 mm (8.13 in.)
Lluvia máxima por minuto (última hora)0.0 mm/min Lluvia maxima por hora (últimas 6 horas)0.0 mm/hora
Lluvia de ayer 0.0 mm Punto de rocío 0.4°C (Wet Bulb :13.1°C )
Humedad 21 %, Humidex 22.0°C Barómetro corregido a msl1016.5 mb
cambio de presión-0.1 mb (última hora) Tendencia (últimas 1 hora)ESTACIONARIO
cambio de presión (últimas 12 horas)+1.2 mb cambio de presión (últimas 6 horas)-2.0 mb
Current Temp. Interna 22.9°C
Current Hum. Interna 40%


Última imagen cámara web


Weather report/warning/Metars

Alicante / El Altet, Spain (LEAL) 38-17N 000-33W 31M
Nov 23, 2017 - 09:30 AM EST / 2017.11.23 1430 UTC
Wind: from the SSW (200 degrees) at 7 MPH (6 KT) (direction variable):0
Visibility: greater than 7 mile(s):0
Temperature: 71 F (22 C)
Dew Point: 46 F (8 C)
Relative Humidity: 40%
Pressure (altimeter): 30.06 in. Hg (1018 hPa)
ob: LEAL 231430Z 20006KT 160V230 CAVOK 22/08 Q1018 NOSIG
cycle: 14
Murcia / San Javier, Spain (LELC) 37-47N 000-48W 3M
Nov 23, 2017 - 09:00 AM EST / 2017.11.23 1400 UTC
Wind: from the SE (140 degrees) at 6 MPH (5 KT) (direction variable):0
Visibility: greater than 7 mile(s):0
Temperature: 68 F (20 C)
Dew Point: 55 F (13 C)
Relative Humidity: 64%
Pressure (altimeter): 30.06 in. Hg (1018 hPa)
ob: LELC 231400Z 14005KT 110V170 CAVOK 20/13 Q1018 NOSIG
cycle: 14
Murcia / Alcantarilla, Spain (LERI) 37-57N 001-14W 75M
Nov 23, 2017 - 09:00 AM EST / 2017.11.23 1400 UTC
Wind: from the WSW (240 degrees) at 3 MPH (3 KT):0
Visibility: greater than 7 mile(s):0
Temperature: 75 F (24 C)
Dew Point: 30 F (-1 C)
Relative Humidity: 19%
Pressure (altimeter): 30.06 in. Hg (1018 hPa)
ob: LERI 231400Z 24003KT CAVOK 24/M01 Q1018 NOSIG
cycle: 14
Gerona / Costa Brava, Spain (LEGE) 41-54N 002-46E 129M
Nov 23, 2017 - 09:30 AM EST / 2017.11.23 1430 UTC
Wind: from the S (180 degrees) at 12 MPH (10 KT) (direction variable):0
Visibility: greater than 7 mile(s):0
Temperature: 66 F (19 C)
Dew Point: 50 F (10 C)
Relative Humidity: 55%
Pressure (altimeter): 29.97 in. Hg (1015 hPa)
ob: LEGE 231430Z 18010KT 150V220 CAVOK 19/10 Q1015
cycle: 14
Madri-Colmenar, Spain (LECV) 40-39N 003-44W
Nov 23, 2017 - 09:00 AM EST / 2017.11.23 1400 UTC
Wind: from the SSW (200 degrees) at 9 MPH (8 KT):0
Visibility: greater than 7 mile(s):0
Sky conditions: mostly clear
Temperature: 57 F (14 C)
Dew Point: 33 F (1 C)
Relative Humidity: 41%
Pressure (altimeter): 30.09 in. Hg (1019 hPa)
ob: LECV 231400Z 20008KT 9999 FEW060 14/01 Q1019
cycle: 14
Asturias / Aviles, Spain (LEAS) 43-33N 006-02W 130M
Nov 23, 2017 - 09:30 AM EST / 2017.11.23 1430 UTC
Wind: from the ESE (110 degrees) at 5 MPH (4 KT) (direction variable):0
Visibility: greater than 7 mile(s):0
Sky conditions: mostly clear
Temperature: 66 F (19 C)
Dew Point: 53 F (12 C)
Relative Humidity: 63%
Pressure (altimeter): 29.83 in. Hg (1010 hPa)
ob: LEAS 231430Z 11004KT 070V160 9999 FEW070 19/12 Q1010 NOSIG
cycle: 14
Almeria / Aeropuerto, Spain (LEAM) 36-51N 002-23W 21M
Nov 23, 2017 - 09:30 AM EST / 2017.11.23 1430 UTC
Wind: from the SW (220 degrees) at 6 MPH (5 KT) (direction variable):0
Visibility: greater than 7 mile(s):0
Temperature: 64 F (18 C)
Dew Point: 55 F (13 C)
Relative Humidity: 72%
Pressure (altimeter): 30.09 in. Hg (1019 hPa)
ob: LEAM 231430Z 22005KT 190V260 CAVOK 18/13 Q1019
cycle: 14
Pamplona / Noain, Spain (LEPP) 42-46N 001-38W 453M
Nov 23, 2017 - 09:30 AM EST / 2017.11.23 1430 UTC
Wind: from the S (180 degrees) at 6 MPH (5 KT) (direction variable):0
Visibility: greater than 7 mile(s):0
Sky conditions: mostly clear
Temperature: 66 F (19 C)
Dew Point: 39 F (4 C)
Relative Humidity: 37%
Pressure (altimeter): 30.00 in. Hg (1016 hPa)
ob: LEPP 231430Z 18005KT 140V210 9999 FEW058 19/04 Q1016
cycle: 14
Badajoz / Talavera La Real, Spain (LEBZ) 38-53N 006-49W 192M
Nov 23, 2017 - 09:00 AM EST / 2017.11.23 1400 UTC
Wind: from the SSW (200 degrees) at 12 MPH (10 KT) (direction variable):0
Visibility: greater than 7 mile(s):0
Temperature: 73 F (23 C)
Dew Point: 35 F (2 C)
Relative Humidity: 25%
Pressure (altimeter): 30.03 in. Hg (1017 hPa)
ob: LEBZ 231400Z 20010KT 170V230 CAVOK 23/02 Q1017
cycle: 14
Albacete / Los Llanos, Spain (LEAB) 38-57N 001-51W 704M
Nov 23, 2017 - 09:00 AM EST / 2017.11.23 1400 UTC
Wind: from the W (260 degrees) at 13 MPH (11 KT):0
Visibility: greater than 7 mile(s):0
Temperature: 68 F (20 C)
Dew Point: 28 F (-2 C)
Relative Humidity: 22%
Pressure (altimeter): 30.12 in. Hg (1020 hPa)
ob: LEAB 231400Z 26011KT CAVOK 20/M02 Q1020 NOSIG
cycle: 14



La informacion se graba a intervalos de 2 minutos, pero hay info grabada cada minuto. Optimizado para 800*600 y Color verdadero. Use el boton de

Use the RECARGA en su navegador para recojer la ulima info.

Clicar aquí para regarga diaria de medias/extremas del mes














Created by "Weather Display" software version 10.37S at this start time/date 23:05:43 07/11/2017

La estación de MeteoMurcia.com, publica sus datos en los siguientes proyectos:

Meteoclimatic www.awekas.at

W3Counter
Web Analytics